Time;durP1;ratioP1;P1;durP2;ratioP2;P2;SDS_P1;SDS_P2;PMS_P1;PMS_P2;Temp;Humidity;BMP_temperature;BMP_pressure;BME280_temperature;BME280_humidity;BME280_pressure;Samples;Min_cycle;Max_cycle;Signal;HPM_P1;HPM_P2
2023/08/10 00:04:32;;;;;;;1.15;0.35;;;;;;;12.38;60.06;98130.06;10284103;28;20102;-73
2023/08/10 00:09:54;;;;;;;1.25;0.52;;;;;;;12.32;60.33;98125.53;10290621;28;20121;-76
2023/08/10 00:15:14;;;;;;;1.65;0.40;;;;;;;12.37;60.32;98111.81;10300166;28;20039;-73
2023/08/10 00:20:36;;;;;;;3.15;0.50;;;;;;;12.43;60.20;98115.72;10298504;28;20043;-73
2023/08/10 00:25:56;;;;;;;1.15;0.47;;;;;;;12.46;60.42;98113.81;10290326;28;20484;-74
2023/08/10 00:31:17;;;;;;;2.38;0.50;;;;;;;12.46;60.29;98113.81;10305133;28;20043;-73
2023/08/10 00:36:38;;;;;;;2.00;0.43;;;;;;;12.50;60.20;98109.19;10284379;28;20066;-73
2023/08/10 00:41:59;;;;;;;1.00;0.35;;;;;;;12.57;59.92;98121.53;10297220;28;20481;-73
2023/08/10 00:47:20;;;;;;;1.30;0.30;;;;;;;12.62;60.00;98123.25;10296478;28;20465;-73
2023/08/10 00:52:41;;;;;;;1.75;0.30;;;;;;;12.55;60.13;98122.16;10269244;28;20054;-72
2023/08/10 00:58:02;;;;;;;1.25;0.55;;;;;;;12.40;60.30;98128.13;10295352;28;20081;-73
2023/08/10 01:03:24;;;;;;;2.53;0.40;;;;;;;12.46;60.22;98128.53;10282115;28;20053;-73
2023/08/10 01:08:51;;;;;;;2.63;0.50;;;;;;;12.54;60.36;98126.25;10281651;28;20426;-73
2023/08/10 01:14:17;;;;;;;1.02;0.40;;;;;;;12.55;60.12;98133.34;10308797;28;20042;-73
2023/08/10 01:19:39;;;;;;;1.65;0.43;;;;;;;12.60;59.83;98128.72;10294950;28;20045;-73
2023/08/10 01:25:00;;;;;;;1.55;0.40;;;;;;;12.57;59.82;98127.88;10281098;28;20039;-73
2023/08/10 01:30:21;;;;;;;1.58;0.45;;;;;;;12.55;59.26;98135.41;10294514;28;20485;-73
2023/08/10 01:35:42;;;;;;;3.55;0.50;;;;;;;12.49;59.99;98126.59;10294160;28;20046;-73
2023/08/10 01:41:02;;;;;;;1.35;0.47;;;;;;;12.44;59.87;98138.84;10293916;28;20077;-73
2023/08/10 01:46:24;;;;;;;1.10;0.38;;;;;;;12.44;60.17;98141.66;10293627;28;20401;-73
2023/08/10 01:51:45;;;;;;;1.73;0.50;;;;;;;12.38;60.24;98135.66;10293860;28;20444;-73
2023/08/10 01:57:06;;;;;;;2.17;0.40;;;;;;;12.35;60.25;98145.25;10279763;28;20448;-73
2023/08/10 02:02:27;;;;;;;1.60;0.40;;;;;;;12.31;60.39;98140.13;10266193;28;20055;-73
2023/08/10 02:07:50;;;;;;;2.58;0.43;;;;;;;12.36;60.23;98150.25;10293332;28;20054;-73
2023/08/10 02:13:12;;;;;;;1.35;0.43;;;;;;;12.38;60.32;98156.00;10293036;28;20042;-73
2023/08/10 02:18:33;;;;;;;3.13;0.60;;;;;;;12.35;60.35;98159.97;10281856;28;20046;-73
2023/08/10 02:23:54;;;;;;;4.30;0.40;;;;;;;12.32;60.50;98144.38;10279799;28;20121;-73
2023/08/10 02:29:15;;;;;;;2.13;0.70;;;;;;;12.39;60.46;98160.25;10282587;28;20054;-74
2023/08/10 02:34:36;;;;;;;1.17;0.50;;;;;;;12.38;60.64;98163.66;10299373;28;20401;-73
2023/08/10 02:39:57;;;;;;;2.50;0.40;;;;;;;12.16;61.19;98174.81;10278722;28;20478;-72
2023/08/10 02:45:17;;;;;;;2.90;0.60;;;;;;;11.94;61.50;98170.47;10292304;28;20054;-73
2023/08/10 02:50:38;;;;;;;1.52;0.60;;;;;;;11.67;61.71;98177.00;10278765;28;20050;-73
2023/08/10 02:55:59;;;;;;;3.72;0.85;;;;;;;11.35;61.23;98183.13;10299629;28;20070;-73
2023/08/10 03:01:21;;;;;;;3.95;1.10;;;;;;;11.12;62.84;98184.31;10299841;28;20485;-73
2023/08/10 03:06:42;;;;;;;4.45;1.00;;;;;;;10.98;63.83;98172.09;10286484;28;20067;-73
2023/08/10 03:12:03;;;;;;;2.17;1.00;;;;;;;10.95;63.95;98181.66;10272634;28;20508;-72
2023/08/10 03:17:25;;;;;;;2.60;1.00;;;;;;;10.88;64.32;98193.72;10299292;28;20050;-73
2023/08/10 03:22:46;;;;;;;2.13;1.20;;;;;;;10.79;65.01;98189.59;10299518;28;20393;-73
2023/08/10 03:28:07;;;;;;;2.10;1.25;;;;;;;10.76;65.41;98195.63;10299253;28;20050;-73
2023/08/10 03:33:27;;;;;;;5.78;1.10;;;;;;;10.79;65.35;98209.13;10299115;28;20046;-73
2023/08/10 03:38:49;;;;;;;5.38;1.02;;;;;;;10.72;66.29;98212.81;10298770;28;20070;-73
2023/08/10 03:44:09;;;;;;;5.13;1.30;;;;;;;10.78;65.81;98218.84;10284956;28;20043;-72
2023/08/10 03:49:30;;;;;;;2.13;0.93;;;;;;;10.85;66.66;98212.38;10284852;28;20125;-73
2023/08/10 03:54:53;;;;;;;2.15;1.00;;;;;;;10.96;67.22;98218.72;10298030;28;20051;-73
2023/08/10 04:00:14;;;;;;;5.30;1.10;;;;;;;10.94;67.36;98215.78;10297789;28;20062;-72
2023/08/10 04:05:39;;;;;;;4.47;1.25;;;;;;;11.00;67.02;98219.75;10283821;28;20097;-72
2023/08/10 04:11:00;;;;;;;6.10;1.15;;;;;;;11.11;67.71;98227.56;10297695;28;20050;-72
2023/08/10 04:16:22;;;;;;;2.42;1.45;;;;;;;11.21;67.94;98227.56;10297111;28;20070;-73
2023/08/10 04:21:46;;;;;;;2.97;1.02;;;;;;;11.35;67.85;98227.84;10297081;28;20051;-73
2023/08/10 04:27:07;;;;;;;4.20;1.25;;;;;;;11.59;67.59;98237.97;10296878;28;20097;-73
2023/08/10 04:32:28;;;;;;;4.25;1.17;;;;;;;11.93;67.16;98230.56;10296526;28;20143;-73
2023/08/10 04:37:49;;;;;;;2.20;0.82;;;;;;;12.33;67.17;98230.56;10282911;28;20486;-73
2023/08/10 04:43:10;;;;;;;4.00;1.00;;;;;;;12.79;66.62;98223.09;10296061;28;20066;-73
2023/08/10 04:48:30;;;;;;;1.92;0.77;;;;;;;13.22;66.13;98229.47;10295993;28;20070;-73
2023/08/10 04:53:51;;;;;;;3.08;0.65;;;;;;;13.68;65.94;98236.56;10296103;28;20169;-72
2023/08/10 04:59:12;;;;;;;2.45;0.90;;;;;;;14.25;64.90;98245.72;10282296;28;20078;-73
2023/08/10 05:04:33;;;;;;;4.75;1.02;;;;;;;14.59;63.79;98242.22;10295238;28;20489;-73
2023/08/10 05:09:53;;;;;;;3.65;0.93;;;;;;;15.18;63.29;98247.72;10281637;28;20473;-73
2023/08/10 05:15:16;;;;;;;4.13;1.02;;;;;;;15.84;62.25;98254.94;10295024;28;20082;-73
2023/08/10 05:20:37;;;;;;;2.80;0.75;;;;;;;16.50;60.58;98254.22;10281170;28;20130;-73
2023/08/10 05:25:58;;;;;;;3.03;0.90;;;;;;;17.33;59.84;98252.84;10281070;28;20121;-73
2023/08/10 05:31:20;;;;;;;6.05;1.83;;;;;;;17.54;56.09;98262.28;10294104;28;20097;-73
2023/08/10 05:36:41;;;;;;;4.13;1.90;;;;;;;17.94;56.49;98264.25;10293843;28;20051;-73
2023/08/10 05:42:01;;;;;;;3.58;1.65;;;;;;;18.76;55.48;98265.13;10280376;28;20110;-73
2023/08/10 05:47:22;;;;;;;7.57;0.82;;;;;;;19.51;54.08;98273.97;10293285;28;20122;-73
2023/08/10 05:52:44;;;;;;;4.13;0.88;;;;;;;20.23;52.46;98275.41;10280030;28;20074;-74
2023/08/10 05:58:05;;;;;;;3.33;0.45;;;;;;;20.79;50.53;98264.72;10279475;28;20129;-74
2023/08/10 06:03:26;;;;;;;1.88;0.60;;;;;;;21.78;48.68;98272.31;10279654;28;20074;-74
2023/08/10 06:08:48;;;;;;;1.48;0.60;;;;;;;23.09;44.15;98280.44;10293182;28;20239;-74
2023/08/10 06:14:09;;;;;;;4.20;0.50;;;;;;;26.21;37.55;98275.44;10292572;28;20070;-74
2023/08/10 06:19:31;;;;;;;2.30;0.60;;;;;;;31.26;29.85;98283.31;10279367;28;20122;-73
2023/08/10 06:24:52;;;;;;;3.28;1.05;;;;;;;36.01;23.98;98288.22;10279188;28;20070;-73
2023/08/10 06:30:16;;;;;;;4.72;1.85;;;;;;;39.71;20.27;98287.56;10291818;28;20039;-74
2023/08/10 06:35:38;;;;;;;7.28;1.58;;;;;;;42.51;16.83;98290.59;10292201;28;20057;-74
2023/08/10 06:40:59;;;;;;;4.35;1.00;;;;;;;44.22;14.94;98286.88;10292164;28;20063;-74
2023/08/10 06:46:20;;;;;;;4.88;0.90;;;;;;;44.40;13.07;98282.13;10291954;28;20039;-74
2023/08/10 06:51:41;;;;;;;4.57;0.68;;;;;;;45.75;12.72;98282.41;10291797;28;20138;-74
2023/08/10 06:57:01;;;;;;;4.20;1.15;;;;;;;45.53;11.40;98284.56;10291646;28;20116;-74
2023/08/10 07:02:23;;;;;;;;;;;;;;;46.42;11.21;98289.63;10278687;28;20055;-75
2023/08/10 07:07:44;;;;;;;2.15;0.50;;;;;;;46.92;10.41;98284.69;10291604;28;19922;-74
2023/08/10 07:13:05;;;;;;;6.22;0.85;;;;;;;47.43;10.50;98281.69;10291233;28;20525;-74
2023/08/10 07:18:25;;;;;;;4.38;1.02;;;;;;;47.42;9.98;98291.41;10291492;28;20066;-76
2023/08/10 07:23:46;;;;;;;3.47;0.70;;;;;;;47.76;9.75;98291.78;10291274;28;20067;-76
2023/08/10 07:29:08;;;;;;;3.03;0.75;;;;;;;49.01;9.42;98301.31;10291362;28;20445;-77
2023/08/10 07:34:29;;;;;;;3.13;0.55;;;;;;;49.70;7.95;98291.31;10277725;28;20073;-76
2023/08/10 07:39:50;;;;;;;2.35;0.45;;;;;;;49.37;8.14;98296.97;10281165;28;20066;-77
2023/08/10 07:45:11;;;;;;;1.77;0.40;;;;;;;50.49;7.74;98298.72;10284836;28;20062;-77
2023/08/10 07:50:31;;;;;;;2.65;0.35;;;;;;;48.93;6.97;98310.84;10284757;28;20070;-77
2023/08/10 07:55:52;;;;;;;1.50;0.38;;;;;;;49.16;7.68;98303.16;10284412;28;20117;-77
2023/08/10 08:01:14;;;;;;;1.92;0.40;;;;;;;49.26;6.79;98305.28;10297748;28;20482;-77
2023/08/10 08:06:38;;;;;;;1.42;0.30;;;;;;;49.67;7.07;98298.97;10270905;28;20046;-77
2023/08/10 08:11:59;;;;;;;1.02;0.40;;;;;;;50.85;6.12;98294.81;10284192;28;20092;-77
2023/08/10 08:17:21;;;;;;;2.45;0.32;;;;;;;50.74;6.62;98294.31;10297007;28;20070;-77
2023/08/10 08:22:43;;;;;;;3.22;0.50;;;;;;;52.05;5.41;98284.59;10283521;28;20125;-77
2023/08/10 08:28:04;;;;;;;1.45;0.30;;;;;;;51.93;5.37;98293.94;10269896;28;20449;-77
2023/08/10 08:33:26;;;;;;;0.88;0.32;;;;;;;45.65;7.23;98290.38;10282911;28;20043;-75
2023/08/10 08:38:47;;;;;;;1.75;0.20;;;;;;;46.58;7.52;98288.50;10282681;28;20121;-79
2023/08/10 08:44:08;;;;;;;1.75;0.40;;;;;;;46.17;7.06;98272.94;10295835;28;20417;-76
2023/08/10 08:49:30;;;;;;;1.02;0.40;;;;;;;39.60;9.36;98280.75;10281438;28;20047;-77
2023/08/10 08:54:50;;;;;;;2.63;0.30;;;;;;;42.90;9.55;98279.72;10281798;28;20102;-76
2023/08/10 09:00:12;;;;;;;1.48;0.32;;;;;;;44.96;7.62;98280.13;10281992;28;20089;-74
2023/08/10 09:05:33;;;;;;;1.63;0.38;;;;;;;38.08;9.69;98275.47;10268156;28;20047;-75
2023/08/10 09:10:54;;;;;;;0.77;0.30;;;;;;;33.77;12.12;98276.16;10281469;28;20068;-75
2023/08/10 09:16:15;;;;;;;1.33;0.25;;;;;;;41.26;12.22;98280.03;10281202;28;20104;-77
2023/08/10 09:21:36;;;;;;;1.02;0.30;;;;;;;49.39;7.57;98272.38;10294351;28;20042;-77
2023/08/10 09:27:01;;;;;;;1.20;0.20;;;;;;;52.44;4.52;98275.00;10280898;28;20046;-77
2023/08/10 09:32:23;;;;;;;0.65;0.20;;;;;;;52.88;4.42;98269.97;10280760;28;20043;-77
2023/08/10 09:37:46;;;;;;;1.20;0.20;;;;;;;44.89;5.76;98278.38;10280225;28;20042;-77
2023/08/10 09:43:10;;;;;;;1.25;0.20;;;;;;;37.04;9.51;98287.50;10280309;28;20051;-76
2023/08/10 09:48:39;;;;;;;1.17;0.32;;;;;;;32.95;12.38;98267.28;10280344;28;20046;-76
2023/08/10 09:54:01;;;;;;;1.52;0.30;;;;;;;31.18;15.33;98277.59;10280400;28;20062;-77
2023/08/10 09:59:21;;;;;;;1.70;0.30;;;;;;;40.92;11.84;98274.28;10279825;28;20081;-77
2023/08/10 10:04:42;;;;;;;0.52;0.20;;;;;;;46.09;7.56;98270.53;10292261;28;20071;-76
2023/08/10 10:10:04;;;;;;;1.00;0.30;;;;;;;49.43;6.10;98278.69;10265873;28;20382;-76
2023/08/10 10:15:25;;;;;;;32.20;2.05;;;;;;;46.53;5.97;98275.59;10279485;28;20449;-77
2023/08/10 10:20:46;;;;;;;1.65;0.30;;;;;;;49.06;5.55;98265.44;10265637;28;20050;-76
2023/08/10 10:26:07;;;;;;;1.58;0.30;;;;;;;48.57;5.19;98275.94;10292468;28;20043;-76
2023/08/10 10:31:28;;;;;;;1.50;0.35;;;;;;;42.13;6.93;98266.94;10265592;28;20049;-76
2023/08/10 10:37:05;;;;;;;1.08;0.20;;;;;;;34.72;11.23;98258.50;10278823;28;20049;-76
2023/08/10 10:42:25;;;;;;;2.42;0.40;;;;;;;33.12;12.69;98256.94;10279820;28;20046;-76
2023/08/10 10:47:47;;;;;;;2.03;0.47;;;;;;;31.42;15.14;98251.50;10278555;28;20074;-76
2023/08/10 10:53:13;;;;;;;;;;;;;;;33.91;14.24;98254.97;10293532;28;20120;-74
2023/08/10 10:58:34;;;;;;;3.38;0.40;;;;;;;38.16;11.96;98248.25;10292467;28;20004;-76
2023/08/10 11:03:55;;;;;;;0.93;0.27;;;;;;;38.20;11.16;98237.13;10278261;28;20135;-76
2023/08/10 11:09:16;;;;;;;2.40;0.40;;;;;;;34.27;13.09;98244.19;10278426;28;20077;-76
2023/08/10 11:14:42;;;;;;;1.95;0.38;;;;;;;30.53;15.71;98240.44;10295135;28;20058;-74
2023/08/10 11:20:12;;;;;;;1.42;0.40;;;;;;;30.45;16.93;98232.56;10285958;28;20118;-74
2023/08/10 11:25:33;;;;;;;0.63;0.28;;;;;;;31.03;16.95;98237.31;10285812;28;20073;-76
2023/08/10 11:31:01;;;;;;;1.20;0.30;;;;;;;31.85;16.65;98228.81;10285456;28;20051;-76
2023/08/10 11:36:24;;;;;;;2.10;0.30;;;;;;;31.45;16.83;98232.72;10285618;28;20045;-75
2023/08/10 11:41:45;;;;;;;1.63;0.30;;;;;;;31.59;16.66;98226.84;10284719;28;20488;-76
2023/08/10 11:47:06;;;;;;;0.50;0.20;;;;;;;30.60;16.96;98216.66;10284686;28;20050;-74
2023/08/10 11:52:28;;;;;;;1.92;0.40;;;;;;;30.94;16.94;98221.53;10284402;28;20058;-76
2023/08/10 11:57:51;;;;;;;0.98;0.30;;;;;;;30.42;17.29;98219.63;10297450;28;20071;-74
2023/08/10 12:03:16;;;;;;;1.90;0.40;;;;;;;30.17;17.51;98216.09;10284196;28;20535;-74
2023/08/10 12:08:41;;;;;;;1.63;0.30;;;;;;;29.73;18.04;98217.63;10283806;28;20067;-76
2023/08/10 12:14:02;;;;;;;0.60;0.20;;;;;;;29.23;18.18;98219.00;10297216;28;20039;-76
2023/08/10 12:19:22;;;;;;;2.28;0.30;;;;;;;29.25;18.52;98204.66;10296935;28;20137;-75
2023/08/10 12:24:44;;;;;;;1.33;0.30;;;;;;;28.70;18.83;98206.69;10295761;28;20062;-76
2023/08/10 12:30:06;;;;;;;1.10;0.40;;;;;;;27.81;19.86;98201.25;10296493;28;20069;-76
2023/08/10 12:35:27;;;;;;;1.05;0.40;;;;;;;27.18;20.46;98197.84;10283148;28;20437;-76
2023/08/10 12:40:48;;;;;;;3.40;0.38;;;;;;;27.01;20.61;98206.25;10296095;28;20077;-76
2023/08/10 12:46:09;;;;;;;3.20;0.40;;;;;;;26.85;20.69;98197.53;10296040;28;20069;-76
2023/08/10 12:51:30;;;;;;;0.95;0.43;;;;;;;27.51;20.64;98185.25;10282598;28;20043;-73
2023/08/10 12:56:51;;;;;;;1.58;0.40;;;;;;;28.19;20.17;98180.66;10295751;28;20054;-74
2023/08/10 13:02:12;;;;;;;1.20;0.30;;;;;;;28.38;20.01;98179.31;10281594;28;20063;-76
2023/08/10 13:07:48;;;;;;;1.55;0.30;;;;;;;28.15;20.48;98181.34;10285779;28;20118;-74
2023/08/10 13:13:09;;;;;;;1.08;0.28;;;;;;;26.91;20.84;98183.25;10281699;28;20496;-73
2023/08/10 13:18:30;;;;;;;1.75;0.40;;;;;;;25.93;21.86;98182.09;10281450;28;20481;-73
2023/08/10 13:23:51;;;;;;;0.93;0.30;;;;;;;25.32;22.60;98186.16;10294285;28;20063;-73
2023/08/10 13:29:11;;;;;;;2.28;0.40;;;;;;;25.29;22.98;98181.84;10294505;28;20082;-73
2023/08/10 13:34:32;;;;;;;0.85;0.30;;;;;;;25.00;23.36;98180.63;10294138;28;20046;-73
2023/08/10 13:39:53;;;;;;;3.42;0.40;;;;;;;25.26;23.12;98177.50;10293798;28;20121;-73
2023/08/10 13:45:14;;;;;;;0.82;0.30;;;;;;;25.52;23.35;98180.78;10280152;28;20047;-73
2023/08/10 13:50:38;;;;;;;2.40;0.50;;;;;;;25.66;23.03;98169.53;10293494;28;20046;-73
2023/08/10 13:55:59;;;;;;;2.30;0.30;;;;;;;25.81;23.06;98164.78;10280103;28;20058;-73
2023/08/10 14:01:20;;;;;;;3.00;0.43;;;;;;;25.85;23.22;98167.69;10279485;28;20098;-73
2023/08/10 14:06:41;;;;;;;0.70;0.30;;;;;;;25.82;23.26;98163.34;10292976;28;20121;-74
2023/08/10 14:12:02;;;;;;;9.10;0.50;;;;;;;25.87;22.84;98159.16;10292732;28;20395;-73
2023/08/10 14:17:23;;;;;;;2.25;0.65;;;;;;;25.88;23.11;98151.28;10279129;28;20043;-73
2023/08/10 14:22:44;;;;;;;3.08;0.47;;;;;;;25.86;23.15;98163.41;10278682;28;20039;-73
2023/08/10 14:28:05;;;;;;;2.00;0.50;;;;;;;25.87;22.85;98161.28;10293351;28;20101;-73
2023/08/10 14:33:26;;;;;;;0.90;0.30;;;;;;;26.16;22.85;98162.38;10292479;28;20054;-73
2023/08/10 14:38:47;;;;;;;4.75;0.38;;;;;;;26.07;23.07;98161.56;10292603;28;20046;-73
2023/08/10 14:44:08;;;;;;;1.55;0.50;;;;;;;26.27;22.77;98161.09;10265324;28;20048;-73
2023/08/10 14:49:31;;;;;;;1.75;0.40;;;;;;;26.31;22.84;98160.41;10295688;28;20047;-73
2023/08/10 14:54:52;;;;;;;1.27;0.40;;;;;;;26.33;22.46;98158.28;10286853;28;20455;-73
2023/08/10 15:00:17;;;;;;;2.05;0.50;;;;;;;25.94;22.61;98154.22;10286688;28;20077;-73
2023/08/10 15:05:38;;;;;;;1.35;0.40;;;;;;;25.62;23.21;98158.06;10286692;28;20047;-73
2023/08/10 15:11:03;;;;;;;2.35;0.40;;;;;;;25.19;23.24;98159.53;10286321;28;20069;-73
2023/08/10 15:16:24;;;;;;;1.60;0.40;;;;;;;25.09;23.83;98154.38;10299455;28;20074;-73
2023/08/10 15:21:45;;;;;;;2.92;0.60;;;;;;;25.02;23.62;98158.53;10285626;28;20038;-74
2023/08/10 15:27:07;;;;;;;1.20;0.43;;;;;;;24.92;23.97;98166.19;10285742;28;20043;-73
2023/08/10 15:32:28;;;;;;;0.90;0.40;;;;;;;24.63;24.04;98165.69;10285565;28;20378;-73
2023/08/10 15:37:49;;;;;;;1.85;0.63;;;;;;;24.22;24.62;98164.13;10298519;28;20074;-73
2023/08/10 15:43:11;;;;;;;2.97;0.40;;;;;;;24.37;24.49;98160.19;10298381;28;20038;-73
2023/08/10 15:48:32;;;;;;;1.58;0.50;;;;;;;24.37;24.91;98153.75;10271736;28;20050;-73
2023/08/10 15:53:54;;;;;;;0.88;0.40;;;;;;;24.06;25.05;98155.97;10284549;28;20039;-73
2023/08/10 15:59:15;;;;;;;1.85;0.50;;;;;;;24.05;25.28;98165.94;10297949;28;20074;-73
2023/08/10 16:04:36;;;;;;;3.15;0.80;;;;;;;24.03;25.50;98157.34;10297562;28;20046;-73
2023/08/10 16:09:57;;;;;;;4.95;1.05;;;;;;;24.01;25.38;98165.84;10297464;28;20050;-73
2023/08/10 16:15:18;;;;;;;3.50;0.60;;;;;;;23.91;25.41;98165.63;10297149;28;20046;-73
2023/08/10 16:20:43;;;;;;;1.70;0.30;;;;;;;23.70;25.60;98153.06;10283348;28;20074;-73
2023/08/10 16:26:04;;;;;;;1.58;0.60;;;;;;;23.67;25.74;98162.97;10283691;28;20466;-73
2023/08/10 16:31:25;;;;;;;1.75;0.60;;;;;;;23.65;25.74;98168.63;10283046;28;20430;-73
2023/08/10 16:36:47;;;;;;;1.70;0.30;;;;;;;23.50;26.19;98167.53;10297267;28;20052;-73
2023/08/10 16:42:08;;;;;;;4.55;0.80;;;;;;;23.52;26.17;98167.56;10282325;28;20050;-73
2023/08/10 16:47:29;;;;;;;2.75;0.40;;;;;;;23.41;26.32;98168.75;10282505;28;20039;-73
2023/08/10 16:52:50;;;;;;;1.63;0.50;;;;;;;23.37;26.47;98182.91;10295786;28;20408;-73
2023/08/10 16:58:11;;;;;;;2.10;0.60;;;;;;;23.27;26.75;98185.50;10295080;28;20123;-73
2023/08/10 17:03:32;;;;;;;2.80;0.50;;;;;;;22.99;27.16;98183.41;10295386;28;20101;-73
2023/08/10 17:08:53;;;;;;;1.10;0.40;;;;;;;22.92;27.51;98178.94;10295178;28;20428;-73
2023/08/10 17:14:14;;;;;;;0.85;0.30;;;;;;;22.72;27.77;98178.38;10295151;28;20443;-73
2023/08/10 17:19:34;;;;;;;1.30;0.50;;;;;;;22.51;28.33;98186.38;10281137;28;20043;-73
2023/08/10 17:24:55;;;;;;;1.80;0.50;;;;;;;22.37;28.48;98176.72;10295535;28;20066;-73
2023/08/10 17:30:16;;;;;;;2.17;0.40;;;;;;;22.20;28.48;98175.56;10280708;28;20043;-73
2023/08/10 17:35:38;;;;;;;1.00;0.40;;;;;;;22.07;28.91;98182.25;10294287;28;20494;-73
2023/08/10 17:40:59;;;;;;;2.50;0.63;;;;;;;21.88;29.27;98187.38;10293663;28;20142;-73
2023/08/10 17:46:25;;;;;;;3.25;0.40;;;;;;;21.68;29.20;98187.47;10294818;28;20070;-73
2023/08/10 17:51:46;;;;;;;2.65;0.30;;;;;;;21.53;29.63;98190.56;10280642;28;20177;-73
2023/08/10 17:57:07;;;;;;;1.23;0.40;;;;;;;21.39;30.05;98183.03;10293352;28;20126;-72
2023/08/10 18:02:28;;;;;;;1.98;0.60;;;;;;;21.26;30.34;98194.63;10293045;28;20126;-73
2023/08/10 18:07:49;;;;;;;2.75;0.60;;;;;;;21.09;30.66;98190.53;10293897;28;20038;-73
2023/08/10 18:13:10;;;;;;;8.15;0.70;;;;;;;20.95;31.09;98187.22;10279516;28;20125;-73
2023/08/10 18:18:31;;;;;;;2.70;1.00;;;;;;;20.81;32.02;98187.47;10293788;28;20047;-73
2023/08/10 18:23:52;;;;;;;4.28;1.35;;;;;;;20.68;32.01;98186.31;10278458;28;20069;-72
2023/08/10 18:29:13;;;;;;;7.15;1.30;;;;;;;20.49;32.62;98187.06;10292656;28;20149;-73
2023/08/10 18:34:34;;;;;;;4.88;1.63;;;;;;;20.34;32.96;98199.25;10292479;28;20047;-73
2023/08/10 18:39:54;;;;;;;5.85;1.83;;;;;;;20.14;33.59;98197.13;10292478;28;20390;-72
2023/08/10 18:45:15;;;;;;;9.45;4.60;;;;;;;19.99;33.94;98206.47;10278775;28;20043;-73
2023/08/10 18:50:36;;;;;;;11.32;5.75;;;;;;;19.88;34.45;98202.53;10292300;28;20058;-73
2023/08/10 18:55:57;;;;;;;3.67;1.83;;;;;;;19.90;34.72;98204.72;10292141;28;20039;-73
2023/08/10 19:01:18;;;;;;;4.47;1.30;;;;;;;19.92;35.08;98204.78;10291789;28;20182;-73
2023/08/10 19:06:39;;;;;;;4.38;1.60;;;;;;;19.95;35.18;98209.88;10291987;28;20548;-73
2023/08/10 19:11:59;;;;;;;5.85;1.38;;;;;;;19.95;35.18;98211.97;10291913;28;20127;-73
2023/08/10 19:17:21;;;;;;;3.78;1.02;;;;;;;19.93;35.42;98217.56;10291831;28;20125;-73
2023/08/10 19:22:42;;;;;;;5.15;1.10;;;;;;;19.92;35.67;98216.13;10278134;28;20090;-72
2023/08/10 19:28:04;;;;;;;4.55;1.63;;;;;;;19.90;35.50;98222.44;10278190;28;20066;-73
2023/08/10 19:33:25;;;;;;;3.42;0.95;;;;;;;19.82;35.60;98224.94;10278286;28;20091;-72
2023/08/10 19:38:45;;;;;;;3.50;0.82;;;;;;;19.71;36.21;98226.66;10299720;28;20066;-72
2023/08/10 19:44:06;;;;;;;4.13;0.90;;;;;;;19.64;36.46;98227.78;10285311;28;20046;-72
2023/08/10 19:49:27;;;;;;;1.30;0.70;;;;;;;19.57;36.36;98231.75;10284955;28;20185;-73
2023/08/10 19:54:47;;;;;;;2.80;0.80;;;;;;;19.47;37.08;98227.75;10298330;28;20454;-73
2023/08/10 20:00:12;;;;;;;4.65;0.90;;;;;;;19.35;37.40;98237.22;10298007;28;20079;-72
2023/08/10 20:05:36;;;;;;;3.08;1.10;;;;;;;19.22;37.84;98234.53;10297951;28;20066;-72
2023/08/10 20:10:58;;;;;;;2.25;1.00;;;;;;;19.02;38.01;98246.47;10284517;28;20170;-72
2023/08/10 20:16:19;;;;;;;5.53;0.93;;;;;;;18.85;38.54;98235.84;10283928;28;20118;-72
2023/08/10 20:21:40;;;;;;;1.88;0.85;;;;;;;18.70;39.06;98245.06;10298235;28;20182;-72
2023/08/10 20:27:07;;;;;;;3.38;0.90;;;;;;;18.50;39.26;98242.78;10297038;28;20481;-73
2023/08/10 20:32:32;;;;;;;2.78;1.20;;;;;;;18.34;39.69;98247.72;10284552;28;20154;-72
2023/08/10 20:37:53;;;;;;;3.78;0.95;;;;;;;18.23;40.19;98248.63;10296944;28;20125;-72
2023/08/10 20:43:14;;;;;;;1.95;0.90;;;;;;;18.15;40.42;98237.69;10282652;28;20518;-72
2023/08/10 20:48:34;;;;;;;2.83;1.00;;;;;;;18.10;40.85;98241.69;10296372;28;20442;-73
2023/08/10 20:53:56;;;;;;;2.90;0.93;;;;;;;18.04;41.34;98241.41;10295975;28;20070;-72
2023/08/10 20:59:16;;;;;;;2.53;0.93;;;;;;;17.97;41.30;98246.06;10295814;28;20066;-73
2023/08/10 21:04:37;;;;;;;2.28;0.93;;;;;;;17.88;41.73;98249.88;10295336;28;20130;-72
2023/08/10 21:09:58;;;;;;;4.00;0.93;;;;;;;17.80;41.73;98248.75;10296274;28;20074;-73
2023/08/10 21:15:19;;;;;;;3.15;1.17;;;;;;;17.73;41.99;98239.25;10281644;28;20039;-73
2023/08/10 21:20:40;;;;;;;2.95;0.73;;;;;;;17.66;42.32;98248.75;10294850;28;20118;-73
2023/08/10 21:26:00;;;;;;;5.53;1.05;;;;;;;17.58;43.04;98254.03;10281186;28;20062;-73
2023/08/10 21:31:22;;;;;;;3.80;1.30;;;;;;;17.51;43.10;98252.28;10294530;28;20128;-73
2023/08/10 21:36:42;;;;;;;2.75;1.08;;;;;;;17.40;43.21;98254.59;10295640;28;20199;-72
2023/08/10 21:42:04;;;;;;;4.00;1.63;;;;;;;17.31;43.60;98252.03;10294109;28;20467;-73
2023/08/10 21:47:24;;;;;;;5.72;1.30;;;;;;;17.22;43.88;98256.53;10280708;28;20114;-72
2023/08/10 21:52:45;;;;;;;4.43;1.50;;;;;;;17.10;44.08;98259.47;10280282;28;20103;-74
2023/08/10 21:58:05;;;;;;;4.50;1.35;;;;;;;17.04;44.50;98261.25;10293327;28;20078;-74
2023/08/10 22:03:26;;;;;;;3.83;0.90;;;;;;;16.96;44.81;98269.31;10280034;28;20133;-74
2023/08/10 22:08:47;;;;;;;2.25;1.00;;;;;;;16.87;44.76;98260.44;10279685;28;20121;-74
2023/08/10 22:14:08;;;;;;;13.57;1.75;;;;;;;16.81;45.36;98265.03;10293220;28;20083;-74
2023/08/10 22:19:28;;;;;;;5.53;1.20;;;;;;;16.77;45.50;98265.56;10293782;28;20134;-74
2023/08/10 22:24:49;;;;;;;3.03;1.00;;;;;;;16.78;45.75;98264.19;10292973;28;20046;-74
2023/08/10 22:30:13;;;;;;;1.88;0.90;;;;;;;16.87;45.89;98263.25;10279137;28;20170;-74
2023/08/10 22:35:34;;;;;;;4.10;0.90;;;;;;;16.98;45.97;98261.66;10292644;28;20046;-75
2023/08/10 22:40:55;;;;;;;4.10;0.82;;;;;;;17.12;46.18;98253.94;10292538;28;20142;-75
2023/08/10 22:46:16;;;;;;;1.73;1.00;;;;;;;17.27;45.85;98257.44;10292312;28;20062;-73
2023/08/10 22:51:37;;;;;;;4.18;1.10;;;;;;;17.38;46.02;98246.06;10278719;28;20131;-74
2023/08/10 22:56:59;;;;;;;1.98;1.00;;;;;;;17.46;45.71;98240.78;10292058;28;20070;-73
2023/08/10 23:02:20;;;;;;;2.75;0.90;;;;;;;17.51;45.56;98241.00;10292950;28;20606;-73
2023/08/10 23:07:41;;;;;;;3.80;1.20;;;;;;;17.51;45.71;98252.28;10292754;28;20054;-73
2023/08/10 23:13:06;;;;;;;6.97;1.15;;;;;;;17.51;45.70;98253.00;10299471;28;20066;-74
2023/08/10 23:18:26;;;;;;;4.97;0.93;;;;;;;17.59;45.69;98252.69;10300758;28;20556;-73
2023/08/10 23:23:47;;;;;;;2.13;1.20;;;;;;;17.61;45.88;98253.50;10299317;28;20122;-73
2023/08/10 23:29:08;;;;;;;4.90;0.95;;;;;;;17.67;46.06;98253.06;10285923;28;20094;-73
2023/08/10 23:34:29;;;;;;;3.28;1.23;;;;;;;17.73;45.76;98256.19;10285561;28;20114;-74
2023/08/10 23:39:50;;;;;;;3.67;1.10;;;;;;;17.79;45.61;98253.66;10298897;28;20126;-73
2023/08/10 23:45:11;;;;;;;4.65;1.13;;;;;;;17.84;45.75;98260.94;10298609;28;20114;-74
2023/08/10 23:50:32;;;;;;;2.65;0.90;;;;;;;17.88;45.83;98257.59;10285155;28;20114;-74
2023/08/10 23:55:53;;;;;;;1.63;0.80;;;;;;;17.94;45.78;98255.78;10298478;28;20125;-74
